createdAt,value
2017-08-30T00:01:14.769Z,0
2017-08-30T00:03:16.188Z,0
2017-08-30T00:05:17.626Z,0
2017-08-30T00:07:19.083Z,0
2017-08-30T00:09:20.543Z,0
2017-08-30T00:11:21.968Z,0
2017-08-30T00:13:23.402Z,0
2017-08-30T00:15:24.824Z,0
2017-08-30T00:17:26.264Z,0
2017-08-30T00:19:27.697Z,0
2017-08-30T00:21:29.126Z,0
2017-08-30T00:23:30.554Z,0
2017-08-30T00:25:31.994Z,0
2017-08-30T00:27:33.422Z,0
2017-08-30T00:29:34.865Z,0
2017-08-30T00:31:36.298Z,0
2017-08-30T00:33:37.751Z,0
2017-08-30T00:35:39.205Z,0
2017-08-30T00:37:40.633Z,0
2017-08-30T00:39:42.097Z,0
2017-08-30T00:41:43.553Z,0
2017-08-30T00:43:45.065Z,0
2017-08-30T00:45:46.593Z,0
2017-08-30T00:47:48.031Z,0
2017-08-30T00:49:49.551Z,0
2017-08-30T00:51:51.032Z,0
2017-08-30T00:53:52.537Z,0
2017-08-30T00:55:53.988Z,0
2017-08-30T00:57:55.486Z,0
2017-08-30T00:59:56.995Z,0
2017-08-30T01:01:58.493Z,0
2017-08-30T01:04:40.913Z,0
2017-08-30T01:06:42.340Z,0
2017-08-30T01:08:43.775Z,0
2017-08-30T01:10:45.220Z,0
2017-08-30T01:12:46.661Z,0
2017-08-30T01:14:48.089Z,0
2017-08-30T01:16:49.519Z,0
2017-08-30T01:19:32.409Z,0
2017-08-30T01:21:33.798Z,0
2017-08-30T01:23:35.220Z,0
2017-08-30T01:25:36.661Z,0
2017-08-30T01:27:38.095Z,0
2017-08-30T01:29:39.519Z,0
2017-08-30T01:31:40.952Z,0
2017-08-30T01:33:42.380Z,0
2017-08-30T01:35:43.819Z,0
2017-08-30T01:37:45.251Z,0
2017-08-30T01:39:46.680Z,0
2017-08-30T01:41:48.119Z,0
2017-08-30T01:43:49.545Z,0
2017-08-30T01:45:50.977Z,0
2017-08-30T01:47:52.409Z,0
2017-08-30T01:49:53.846Z,0
2017-08-30T01:51:55.274Z,0
2017-08-30T01:53:56.710Z,0
2017-08-30T01:55:58.139Z,0
2017-08-30T01:57:59.572Z,0
2017-08-30T02:00:01.001Z,0
2017-08-30T02:02:02.431Z,0
2017-08-30T02:04:03.856Z,0
2017-08-30T02:06:05.291Z,0
2017-08-30T02:08:06.721Z,0
2017-08-30T02:10:08.150Z,0
2017-08-30T02:12:09.590Z,0
2017-08-30T02:14:11.023Z,0
2017-08-30T02:16:12.446Z,0
2017-08-30T02:18:13.882Z,0
2017-08-30T02:20:15.310Z,0
2017-08-30T02:22:16.736Z,0
2017-08-30T02:24:18.193Z,0
2017-08-30T02:26:19.736Z,0
2017-08-30T02:28:21.204Z,0
2017-08-30T02:30:22.732Z,0
2017-08-30T02:32:24.207Z,0
2017-08-30T02:34:25.764Z,0
2017-08-30T02:36:27.254Z,0
2017-08-30T02:38:28.815Z,0
2017-08-30T02:40:30.344Z,0
2017-08-30T02:42:31.901Z,0
2017-08-30T02:44:33.405Z,0
2017-08-30T02:46:34.918Z,0
2017-08-30T02:48:36.412Z,0
2017-08-30T02:50:37.937Z,0
2017-08-30T02:52:39.459Z,0
2017-08-30T02:55:21.873Z,0
2017-08-30T02:57:23.301Z,0
2017-08-30T02:59:24.737Z,0
2017-08-30T03:01:26.173Z,0
2017-08-30T03:03:27.604Z,0
2017-08-30T03:05:29.054Z,0
2017-08-30T03:07:30.480Z,0
2017-08-30T03:09:31.919Z,0
2017-08-30T03:11:33.353Z,0
2017-08-30T03:13:34.790Z,0
2017-08-30T03:15:36.215Z,0
2017-08-30T03:17:37.640Z,0
2017-08-30T03:19:39.168Z,0
2017-08-30T03:21:40.662Z,0
2017-08-30T03:23:42.151Z,0
2017-08-30T03:26:24.661Z,0
2017-08-30T03:28:26.103Z,0
2017-08-30T03:30:27.530Z,0
2017-08-30T03:32:28.977Z,0
2017-08-30T03:34:30.410Z,0
2017-08-30T03:36:31.837Z,0
2017-08-30T03:38:33.361Z,0
2017-08-30T03:40:34.741Z,0
2017-08-30T03:43:17.183Z,0
2017-08-30T03:45:18.617Z,0
2017-08-30T03:47:20.038Z,0
2017-08-30T03:49:21.474Z,0
2017-08-30T03:51:22.896Z,0
2017-08-30T03:53:24.343Z,0
2017-08-30T03:55:25.768Z,0
2017-08-30T03:57:27.200Z,0
2017-08-30T03:59:28.828Z,0
2017-08-30T04:01:30.263Z,0
2017-08-30T04:03:31.690Z,0
2017-08-30T04:05:33.128Z,0
2017-08-30T04:07:34.558Z,0
2017-08-30T04:09:35.988Z,0
2017-08-30T04:11:37.414Z,0
2017-08-30T04:14:19.914Z,0
2017-08-30T04:16:21.488Z,0
2017-08-30T04:18:23.050Z,0
2017-08-30T04:20:24.456Z,0
2017-08-30T04:22:25.907Z,0
2017-08-30T04:24:27.316Z,0
2017-08-30T04:26:28.747Z,0
2017-08-30T04:28:30.177Z,0
2017-08-30T04:31:12.745Z,0
2017-08-30T04:33:14.174Z,0
2017-08-30T04:35:15.600Z,0
2017-08-30T04:37:17.029Z,0
2017-08-30T04:39:18.458Z,0
2017-08-30T04:41:19.903Z,0
2017-08-30T04:43:21.338Z,0
2017-08-30T04:46:04.110Z,0
2017-08-30T04:48:05.496Z,0
2017-08-30T04:50:06.922Z,0
2017-08-30T04:52:08.348Z,0
2017-08-30T04:54:09.779Z,0
2017-08-30T04:56:11.205Z,0
2017-08-30T04:58:12.632Z,0
2017-08-30T05:00:14.064Z,0
2017-08-30T05:02:15.492Z,0
2017-08-30T05:04:16.933Z,0
2017-08-30T05:06:18.370Z,0
2017-08-30T05:08:19.804Z,0
2017-08-30T05:10:21.231Z,0
2017-08-30T05:12:22.659Z,0
2017-08-30T05:14:24.099Z,0
2017-08-30T05:16:25.519Z,0
2017-08-30T05:18:26.946Z,0
2017-08-30T05:20:28.373Z,5
2017-08-30T05:22:29.805Z,5
2017-08-30T05:24:31.227Z,5
2017-08-30T05:26:32.710Z,5
2017-08-30T05:28:34.133Z,5
2017-08-30T05:30:35.580Z,5
2017-08-30T05:32:36.998Z,5
2017-08-30T05:34:38.426Z,5
2017-08-30T05:36:39.854Z,10
2017-08-30T05:38:41.287Z,10
2017-08-30T05:40:42.717Z,10
2017-08-30T05:42:44.148Z,10
2017-08-30T05:44:45.581Z,15
2017-08-30T05:46:48.475Z,10
2017-08-30T05:48:50.073Z,10
2017-08-30T05:50:51.533Z,10
2017-08-30T05:52:53.542Z,15
2017-08-30T05:54:55.910Z,15
2017-08-30T05:56:57.892Z,20
2017-08-30T05:58:59.960Z,20
2017-08-30T06:01:01.998Z,20
2017-08-30T06:03:03.616Z,25
2017-08-30T06:05:46.035Z,20
2017-08-30T06:07:48.885Z,20
2017-08-30T06:09:50.243Z,20
2017-08-30T06:11:51.930Z,20
2017-08-30T06:13:53.497Z,25
2017-08-30T06:15:55.096Z,25
2017-08-30T06:17:56.700Z,30
2017-08-30T06:20:40.770Z,35
2017-08-30T06:22:42.463Z,40
2017-08-30T06:24:44.240Z,40
2017-08-30T06:26:45.770Z,40
2017-08-30T06:28:47.317Z,40
2017-08-30T06:30:49.734Z,50
2017-08-30T06:32:52.036Z,40
2017-08-30T06:34:53.561Z,45
2017-08-30T06:36:56.057Z,200
2017-08-30T06:38:58.338Z,170
2017-08-30T06:41:00.169Z,20
2017-08-30T06:43:01.716Z,20
2017-08-30T06:45:03.272Z,20
2017-08-30T06:47:04.805Z,20
2017-08-30T06:49:06.406Z,20
2017-08-30T06:51:49.859Z,25
2017-08-30T06:53:52.086Z,30
2017-08-30T06:55:53.526Z,25
2017-08-30T06:57:54.989Z,25
2017-08-30T06:59:56.431Z,20
2017-08-30T07:01:58.821Z,20
2017-08-30T07:04:00.393Z,20
2017-08-30T07:06:02.287Z,20
2017-08-30T07:08:43.877Z,20
2017-08-30T07:10:47.465Z,20
2017-08-30T07:12:48.872Z,20
2017-08-30T07:14:50.311Z,20
2017-08-30T07:16:51.847Z,20
2017-08-30T07:18:53.679Z,20
2017-08-30T07:20:55.844Z,20
2017-08-30T07:22:57.406Z,20
2017-08-30T07:24:58.901Z,20
2017-08-30T07:27:00.909Z,20
2017-08-30T07:29:03.540Z,20
2017-08-30T07:31:05.634Z,15
2017-08-30T07:33:07.185Z,15
2017-08-30T07:35:08.826Z,15
2017-08-30T07:37:10.352Z,15
2017-08-30T07:39:11.980Z,15
2017-08-30T07:41:13.500Z,15
2017-08-30T07:43:14.996Z,15
2017-08-30T07:45:16.520Z,15
2017-08-30T07:47:18.038Z,20
2017-08-30T07:49:19.582Z,20
2017-08-30T07:51:21.168Z,25
2017-08-30T07:53:23.145Z,20
2017-08-30T07:55:25.651Z,20
2017-08-30T07:57:27.280Z,20
2017-08-30T07:59:28.947Z,20
2017-08-30T08:01:30.787Z,20
2017-08-30T08:03:33.240Z,20
2017-08-30T08:05:34.726Z,20
2017-08-30T08:07:37.017Z,20
2017-08-30T08:09:38.553Z,25
2017-08-30T08:12:20.981Z,25
2017-08-30T08:14:22.417Z,20
2017-08-30T08:16:23.849Z,20
2017-08-30T08:18:25.835Z,15
2017-08-30T08:20:27.305Z,10
2017-08-30T08:22:28.724Z,10
2017-08-30T08:24:30.744Z,10
2017-08-30T08:26:32.315Z,10
2017-08-30T08:28:33.829Z,10
2017-08-30T08:30:35.287Z,10
2017-08-30T08:32:36.961Z,10
2017-08-30T08:34:38.526Z,5
2017-08-30T08:36:40.093Z,5
2017-08-30T08:38:41.561Z,5
2017-08-30T08:40:43.076Z,5
2017-08-30T08:42:44.625Z,5
2017-08-30T08:44:46.156Z,5
2017-08-30T08:46:47.691Z,10
2017-08-30T08:48:49.245Z,10
2017-08-30T08:50:50.799Z,10
2017-08-30T08:52:52.381Z,10
2017-08-30T08:54:53.967Z,10
2017-08-30T08:56:55.543Z,10
2017-08-30T08:58:57.066Z,10
2017-08-30T09:00:58.622Z,10
2017-08-30T09:03:00.205Z,15
2017-08-30T09:05:01.732Z,15
2017-08-30T09:07:03.281Z,15
2017-08-30T09:09:04.818Z,10
2017-08-30T09:11:06.365Z,10
2017-08-30T09:13:07.859Z,10
2017-08-30T09:15:09.412Z,5
2017-08-30T09:17:10.931Z,5
2017-08-30T09:19:12.511Z,5
2017-08-30T09:21:14.181Z,5
2017-08-30T09:23:15.677Z,5
2017-08-30T09:25:17.224Z,5
2017-08-30T09:27:18.707Z,10
2017-08-30T09:29:20.239Z,10
2017-08-30T09:31:21.807Z,10
2017-08-30T09:33:23.386Z,10
2017-08-30T09:35:24.940Z,10
2017-08-30T09:37:26.763Z,10
2017-08-30T09:39:28.522Z,5
2017-08-30T09:41:30.043Z,5
2017-08-30T09:43:31.627Z,5
2017-08-30T09:45:33.107Z,5
2017-08-30T09:47:34.643Z,5
2017-08-30T09:49:36.523Z,5
2017-08-30T09:51:38.251Z,5
2017-08-30T09:53:40.029Z,0
2017-08-30T09:55:43.236Z,5
2017-08-30T09:57:44.850Z,5
2017-08-30T09:59:46.550Z,5
2017-08-30T10:01:48.540Z,5
2017-08-30T10:03:50.063Z,5
2017-08-30T10:05:52.448Z,5
2017-08-30T10:07:53.985Z,10
2017-08-30T10:09:55.503Z,15
2017-08-30T10:11:57.734Z,20
2017-08-30T10:13:59.413Z,20
2017-08-30T10:16:00.941Z,20
2017-08-30T10:18:43.378Z,25
2017-08-30T10:20:45.218Z,30
2017-08-30T10:22:46.718Z,30
2017-08-30T10:24:48.297Z,35
2017-08-30T10:26:49.710Z,30
2017-08-30T10:28:51.164Z,25
2017-08-30T10:30:52.654Z,30
2017-08-30T10:32:54.189Z,50
2017-08-30T10:34:55.927Z,140
2017-08-30T10:36:57.481Z,110
2017-08-30T10:38:59.047Z,105
2017-08-30T10:41:01.418Z,130
2017-08-30T10:43:03.044Z,125
2017-08-30T10:45:04.562Z,105
2017-08-30T10:47:06.164Z,75
2017-08-30T10:49:07.692Z,60
2017-08-30T10:51:09.483Z,65
2017-08-30T10:53:10.992Z,60
2017-08-30T10:55:12.508Z,95
2017-08-30T10:57:14.078Z,110
2017-08-30T10:59:15.598Z,125
2017-08-30T11:01:17.141Z,115
2017-08-30T11:03:18.731Z,105
2017-08-30T11:05:20.418Z,130
2017-08-30T11:07:21.930Z,110
2017-08-30T11:09:23.584Z,115
2017-08-30T11:11:25.139Z,105
2017-08-30T11:13:26.786Z,90
2017-08-30T11:15:28.314Z,80
2017-08-30T11:17:29.887Z,80
2017-08-30T11:19:31.487Z,85
2017-08-30T11:21:34.115Z,75
2017-08-30T11:23:35.698Z,85
2017-08-30T11:25:37.186Z,70
2017-08-30T11:27:38.686Z,55
2017-08-30T11:29:40.225Z,50
2017-08-30T11:31:41.869Z,60
2017-08-30T11:33:43.481Z,55
2017-08-30T11:35:45.308Z,55
2017-08-30T11:37:47.157Z,65
2017-08-30T11:39:49.014Z,70
2017-08-30T11:41:50.629Z,70
2017-08-30T11:43:53.177Z,65
2017-08-30T11:45:55.223Z,60
2017-08-30T11:47:57.106Z,60
2017-08-30T11:49:58.766Z,70
2017-08-30T11:52:00.359Z,65
2017-08-30T11:54:02.126Z,70
2017-08-30T11:56:04.009Z,80
2017-08-30T11:58:05.589Z,85
2017-08-30T12:00:08.128Z,85
2017-08-30T12:02:09.906Z,85
2017-08-30T12:04:11.768Z,70
2017-08-30T12:06:13.585Z,55
2017-08-30T12:08:15.305Z,55
2017-08-30T12:10:17.260Z,55
2017-08-30T12:12:19.130Z,80
2017-08-30T12:14:20.650Z,90
2017-08-30T12:17:04.092Z,75
2017-08-30T12:19:05.553Z,70
2017-08-30T12:21:07.372Z,65
2017-08-30T12:23:09.059Z,55
2017-08-30T12:25:10.729Z,55
2017-08-30T12:27:12.490Z,50
2017-08-30T12:29:14.458Z,50
2017-08-30T12:31:16.891Z,45
2017-08-30T12:33:18.609Z,40
2017-08-30T12:35:20.295Z,45
2017-08-30T12:37:22.193Z,55
2017-08-30T12:40:04.758Z,45
2017-08-30T12:42:09.122Z,45
2017-08-30T12:44:10.958Z,45
2017-08-30T12:46:12.482Z,45
2017-08-30T12:48:14.173Z,50
2017-08-30T12:50:15.897Z,50
2017-08-30T12:52:17.707Z,40
2017-08-30T12:54:19.678Z,35
2017-08-30T12:56:21.340Z,35
2017-08-30T12:58:23.761Z,35
2017-08-30T13:00:25.612Z,45
2017-08-30T13:02:27.482Z,55
2017-08-30T13:04:29.286Z,75
2017-08-30T13:06:30.797Z,60
2017-08-30T13:08:32.423Z,50
2017-08-30T13:10:33.945Z,50
2017-08-30T13:13:16.623Z,50
2017-08-30T13:15:18.054Z,50
2017-08-30T13:17:19.517Z,50
2017-08-30T13:19:20.946Z,50
2017-08-30T13:21:22.392Z,50
2017-08-30T13:23:23.826Z,50
2017-08-30T13:25:25.336Z,45
2017-08-30T13:27:26.794Z,40
2017-08-30T13:29:28.231Z,40
2017-08-30T13:31:29.660Z,35
2017-08-30T13:33:31.103Z,35
2017-08-30T13:35:32.856Z,35
2017-08-30T13:37:35.048Z,40
2017-08-30T13:39:36.900Z,40
2017-08-30T13:41:38.503Z,40
2017-08-30T13:44:20.062Z,35
2017-08-30T13:46:21.485Z,35
2017-08-30T13:48:22.918Z,35
2017-08-30T13:50:24.355Z,35
2017-08-30T13:52:25.795Z,35
2017-08-30T13:54:27.496Z,35
2017-08-30T13:56:29.217Z,35
2017-08-30T13:59:11.804Z,35
2017-08-30T14:01:13.243Z,35
2017-08-30T14:03:15.370Z,35
2017-08-30T14:05:17.391Z,40
2017-08-30T14:07:19.122Z,45
2017-08-30T14:09:21.033Z,45
2017-08-30T14:11:22.770Z,50
2017-08-30T14:13:24.301Z,55
2017-08-30T14:15:26.054Z,50
2017-08-30T14:17:27.906Z,40
2017-08-30T14:19:29.475Z,40
2017-08-30T14:21:31.027Z,40
2017-08-30T14:23:32.556Z,40
2017-08-30T14:25:34.460Z,40
2017-08-30T14:27:35.989Z,40
2017-08-30T14:30:18.409Z,40
2017-08-30T14:32:19.908Z,35
2017-08-30T14:34:21.580Z,40
2017-08-30T14:36:23.000Z,40
2017-08-30T14:38:24.439Z,40
2017-08-30T14:40:25.936Z,40
2017-08-30T14:42:27.381Z,35
2017-08-30T14:44:28.896Z,35
2017-08-30T14:47:09.838Z,35
2017-08-30T14:49:11.295Z,35
2017-08-30T14:51:14.398Z,35
2017-08-30T14:53:15.931Z,35
2017-08-30T14:55:18.267Z,30
2017-08-30T14:57:20.339Z,30
2017-08-30T14:59:22.154Z,30
2017-08-30T15:01:24.016Z,30
2017-08-30T15:03:25.871Z,30
2017-08-30T15:05:27.416Z,30
2017-08-30T15:07:28.958Z,30
2017-08-30T15:09:30.423Z,30
2017-08-30T15:11:32.282Z,30
2017-08-30T15:13:34.211Z,30
2017-08-30T15:15:35.713Z,25
2017-08-30T15:17:37.305Z,25
2017-08-30T15:19:39.095Z,25
2017-08-30T15:21:41.539Z,25
2017-08-30T15:23:43.435Z,20
2017-08-30T15:25:45.428Z,20
2017-08-30T15:27:47.829Z,20
2017-08-30T15:29:49.628Z,20
2017-08-30T15:31:51.173Z,20
2017-08-30T15:33:53.084Z,20
2017-08-30T15:35:54.911Z,20
2017-08-30T15:37:56.666Z,20
2017-08-30T15:39:58.612Z,20
2017-08-30T15:42:01.111Z,20
2017-08-30T15:44:02.954Z,15
2017-08-30T15:46:04.692Z,15
2017-08-30T15:48:06.593Z,15
2017-08-30T15:50:48.312Z,15
2017-08-30T15:52:51.715Z,15
2017-08-30T15:54:53.959Z,15
2017-08-30T15:56:55.694Z,15
2017-08-30T15:58:57.507Z,10
2017-08-30T16:00:59.808Z,10
2017-08-30T16:03:01.590Z,10
2017-08-30T16:05:44.030Z,10
2017-08-30T16:07:45.467Z,10
2017-08-30T16:09:46.936Z,10
2017-08-30T16:11:48.749Z,15
2017-08-30T16:13:51.315Z,15
2017-08-30T16:15:53.843Z,15
2017-08-30T16:17:56.322Z,15
2017-08-30T16:19:58.492Z,20
2017-08-30T16:22:00.033Z,25
2017-08-30T16:24:01.841Z,30
2017-08-30T16:26:03.674Z,30
2017-08-30T16:28:05.285Z,30
2017-08-30T16:30:06.805Z,30
2017-08-30T16:32:08.466Z,25
2017-08-30T16:34:09.982Z,20
2017-08-30T16:36:11.831Z,20
2017-08-30T16:38:13.338Z,20
2017-08-30T16:40:14.808Z,20
2017-08-30T16:42:16.307Z,20
2017-08-30T16:44:17.759Z,20
2017-08-30T16:46:19.337Z,20
2017-08-30T16:48:20.987Z,20
2017-08-30T16:50:22.494Z,20
2017-08-30T16:52:24.091Z,20
2017-08-30T16:54:25.590Z,20
2017-08-30T16:56:27.138Z,20
2017-08-30T16:58:28.690Z,15
2017-08-30T17:00:30.231Z,15
2017-08-30T17:02:31.786Z,10
2017-08-30T17:04:33.283Z,10
2017-08-30T17:06:34.860Z,10
2017-08-30T17:08:36.434Z,10
2017-08-30T17:10:37.899Z,5
2017-08-30T17:12:39.372Z,5
2017-08-30T17:14:40.909Z,5
2017-08-30T17:16:42.442Z,5
2017-08-30T17:18:43.932Z,0
2017-08-30T17:20:45.513Z,0
2017-08-30T17:22:47.001Z,0
2017-08-30T17:24:48.493Z,0
2017-08-30T17:26:50.101Z,0
2017-08-30T17:28:51.565Z,0
2017-08-30T17:30:53.101Z,0
2017-08-30T17:32:54.655Z,0
2017-08-30T17:34:56.155Z,0
2017-08-30T17:36:57.661Z,0
2017-08-30T17:38:59.097Z,0
2017-08-30T17:41:00.647Z,0
2017-08-30T17:43:02.145Z,0
2017-08-30T17:45:03.672Z,0
2017-08-30T17:47:05.136Z,0
2017-08-30T17:49:06.651Z,0
2017-08-30T17:51:08.192Z,0
2017-08-30T17:53:09.814Z,0
2017-08-30T17:55:11.306Z,0
2017-08-30T17:57:12.858Z,0
2017-08-30T17:59:14.344Z,0
2017-08-30T18:01:15.922Z,0
2017-08-30T18:03:17.426Z,0
2017-08-30T18:05:18.876Z,0
2017-08-30T18:07:20.379Z,0
2017-08-30T18:09:21.886Z,0
2017-08-30T18:11:23.771Z,0
2017-08-30T18:13:25.287Z,0
2017-08-30T18:15:26.840Z,0
2017-08-30T18:17:28.311Z,0
2017-08-30T18:19:30.075Z,0
2017-08-30T18:21:31.572Z,0
2017-08-30T18:23:33.045Z,0
2017-08-30T18:25:34.622Z,0
2017-08-30T18:27:36.182Z,0
2017-08-30T18:29:37.743Z,0
2017-08-30T18:31:39.275Z,0
2017-08-30T18:33:40.840Z,0
2017-08-30T18:35:42.347Z,0
2017-08-30T18:37:43.819Z,0
2017-08-30T18:39:45.349Z,0
2017-08-30T18:41:46.810Z,0
2017-08-30T18:43:48.278Z,0
2017-08-30T18:45:49.706Z,0
2017-08-30T18:47:51.139Z,0
2017-08-30T18:49:52.568Z,0
2017-08-30T18:51:54.005Z,0
2017-08-30T18:53:55.443Z,0
2017-08-30T18:55:56.869Z,0
2017-08-30T18:57:58.299Z,0
2017-08-30T18:59:59.751Z,0
2017-08-30T19:02:01.189Z,0
2017-08-30T19:04:02.728Z,0
2017-08-30T19:06:04.277Z,0
2017-08-30T19:08:05.774Z,0
2017-08-30T19:10:07.319Z,0
2017-08-30T19:12:08.875Z,0
2017-08-30T19:14:10.326Z,0
2017-08-30T19:16:11.789Z,0
2017-08-30T19:18:13.312Z,0
2017-08-30T19:20:14.792Z,0
2017-08-30T19:22:16.243Z,0
2017-08-30T19:24:17.687Z,0
2017-08-30T19:26:19.311Z,0
2017-08-30T19:28:20.929Z,0
2017-08-30T19:30:22.599Z,0
2017-08-30T19:32:24.101Z,0
2017-08-30T19:34:25.597Z,0
2017-08-30T19:36:27.077Z,0
2017-08-30T19:38:28.613Z,0
2017-08-30T19:40:30.429Z,0
2017-08-30T19:42:32.345Z,0
2017-08-30T19:44:33.951Z,0
2017-08-30T19:46:35.472Z,0
2017-08-30T19:48:36.996Z,0
2017-08-30T19:50:38.504Z,0
2017-08-30T19:52:40.018Z,0
2017-08-30T19:54:41.478Z,0
2017-08-30T19:56:43.016Z,0
2017-08-30T19:58:44.478Z,0
2017-08-30T20:00:45.905Z,0
2017-08-30T20:03:28.323Z,0
2017-08-30T20:05:29.748Z,0
2017-08-30T20:07:31.219Z,0
2017-08-30T20:09:32.655Z,0
2017-08-30T20:11:34.165Z,0
2017-08-30T20:13:35.676Z,0
2017-08-30T20:15:37.277Z,0
2017-08-30T20:17:38.748Z,0
2017-08-30T20:19:40.192Z,0
2017-08-30T20:21:41.624Z,0
2017-08-30T20:23:43.063Z,0
2017-08-30T20:25:44.573Z,0
2017-08-30T20:27:46.392Z,0
2017-08-30T20:29:47.838Z,0
2017-08-30T20:31:49.260Z,0
2017-08-30T20:33:50.697Z,0
2017-08-30T20:35:52.132Z,0
2017-08-30T20:37:53.565Z,0
2017-08-30T20:39:54.992Z,0
2017-08-30T20:41:56.444Z,0
2017-08-30T20:43:57.969Z,0
2017-08-30T20:45:59.456Z,0
2017-08-30T20:48:00.957Z,0
2017-08-30T20:50:43.836Z,0
2017-08-30T20:52:45.214Z,0
2017-08-30T20:54:46.646Z,0
2017-08-30T20:56:48.071Z,0
2017-08-30T20:58:49.498Z,0
2017-08-30T21:00:50.936Z,0
2017-08-30T21:02:52.372Z,0
2017-08-30T21:04:53.790Z,0
2017-08-30T21:06:55.359Z,0
2017-08-30T21:08:56.786Z,0
2017-08-30T21:10:58.274Z,0
2017-08-30T21:12:59.841Z,0
2017-08-30T21:15:01.387Z,0
2017-08-30T21:17:02.810Z,0
2017-08-30T21:19:04.559Z,0
2017-08-30T21:21:06.418Z,0
2017-08-30T21:23:50.425Z,0
2017-08-30T21:25:51.875Z,0
2017-08-30T21:27:53.531Z,0
2017-08-30T21:29:54.956Z,0
2017-08-30T21:31:56.922Z,0
2017-08-30T21:33:58.583Z,0
2017-08-30T21:36:00.381Z,0
2017-08-30T21:38:02.101Z,0
2017-08-30T21:40:03.639Z,0
2017-08-30T21:42:05.192Z,0
2017-08-30T21:44:07.043Z,0
2017-08-30T21:46:08.822Z,0
2017-08-30T21:48:10.442Z,0
2017-08-30T21:50:12.076Z,0
2017-08-30T21:52:13.719Z,0
2017-08-30T21:54:56.090Z,0
2017-08-30T21:56:57.528Z,0
2017-08-30T21:58:58.953Z,0
2017-08-30T22:01:00.416Z,0
2017-08-30T22:03:01.878Z,0
2017-08-30T22:05:03.689Z,0
2017-08-30T22:07:05.260Z,0
2017-08-30T22:09:48.234Z,0
2017-08-30T22:11:49.647Z,0
2017-08-30T22:13:51.074Z,0
2017-08-30T22:15:52.499Z,0
2017-08-30T22:17:53.938Z,0
2017-08-30T22:19:55.845Z,0
2017-08-30T22:21:57.370Z,0
2017-08-30T22:23:59.100Z,0
2017-08-30T22:26:00.653Z,0
2017-08-30T22:28:02.236Z,0
2017-08-30T22:30:03.702Z,0
2017-08-30T22:32:05.447Z,0
2017-08-30T22:34:07.031Z,0
2017-08-30T22:36:08.606Z,0
2017-08-30T22:38:10.188Z,0
2017-08-30T22:40:51.982Z,0
2017-08-30T22:42:53.401Z,0
2017-08-30T22:44:54.839Z,0
2017-08-30T22:46:56.277Z,0
2017-08-30T22:48:57.992Z,0
2017-08-30T22:50:59.464Z,0
2017-08-30T22:53:01.040Z,0
2017-08-30T22:55:02.413Z,0
2017-08-30T22:57:44.839Z,0
2017-08-30T22:59:46.402Z,0
2017-08-30T23:01:48.265Z,0
2017-08-30T23:03:49.814Z,0
2017-08-30T23:05:51.247Z,0
2017-08-30T23:07:52.673Z,0
2017-08-30T23:09:54.202Z,0
2017-08-30T23:11:55.769Z,0
2017-08-30T23:13:57.398Z,0
2017-08-30T23:15:58.950Z,0
2017-08-30T23:18:00.871Z,0
2017-08-30T23:20:02.853Z,0
2017-08-30T23:22:04.754Z,0
2017-08-30T23:24:06.309Z,0
2017-08-30T23:26:07.954Z,0
2017-08-30T23:28:09.702Z,0
2017-08-30T23:30:11.517Z,0
2017-08-30T23:32:13.191Z,0
2017-08-30T23:34:14.896Z,0
2017-08-30T23:36:16.576Z,0
2017-08-30T23:38:18.039Z,0
2017-08-30T23:40:19.598Z,0
2017-08-30T23:42:21.162Z,0
2017-08-30T23:44:22.992Z,0
2017-08-30T23:46:24.670Z,0
2017-08-30T23:48:26.467Z,0
2017-08-30T23:50:28.067Z,0
2017-08-30T23:52:29.574Z,0
2017-08-30T23:54:31.597Z,0
2017-08-30T23:56:33.129Z,0
2017-08-30T23:58:34.658Z,0
